Time;durP1;ratioP1;P1;durP2;ratioP2;P2;SDS_P1;SDS_P2;PMS_P1;PMS_P2;Temp;Humidity;BMP_temperature;BMP_pressure;BME280_temperature;BME280_humidity;BME280_pressure;Samples;Min_cycle;Max_cycle;Signal;HPM_P1;HPM_P2
2022/04/21 00:01:16;;;;;;;4.50;4.03;;;11.40;47.30;;;;;;7371586;19;20396;-42
2022/04/21 00:03:45;;;;;;;6.30;4.07;;;11.40;47.80;;;;;;7373531;19;20372;-42
2022/04/21 00:06:17;;;;;;;4.57;4.10;;;11.00;48.40;;;;;;7373545;19;20366;-43
2022/04/21 00:08:49;;;;;;;5.23;4.73;;;10.70;49.50;;;;;;7377345;19;20385;-41
2022/04/21 00:11:19;;;;;;;6.27;4.73;;;10.40;50.20;;;;;;7376635;19;20367;-41
2022/04/21 00:13:48;;;;;;;5.10;3.77;;;10.50;50.20;;;;;;7371440;19;20754;-41
2022/04/21 00:16:20;;;;;;;5.33;4.33;;;10.40;50.30;;;;;;7372350;19;20912;-42
2022/04/21 00:18:50;;;;;;;4.80;4.30;;;10.50;50.20;;;;;;7365463;19;20442;-42
2022/04/21 00:23:25;;;;;;;4.80;4.40;;;10.40;50.40;;;;;;7370539;19;21067;-42
2022/04/21 00:24:09;;;;;;;4.53;3.93;;;10.10;51.20;;;;;;7369779;19;20376;-42
2022/04/21 00:26:38;;;;;;;7.03;4.60;;;10.10;51.50;;;;;;7372639;19;20376;-41
2022/04/21 00:29:11;;;;;;;4.90;4.10;;;10.10;51.50;;;;;;7365974;19;20392;-41
2022/04/21 00:31:43;;;;;;;6.50;5.40;;;10.00;51.80;;;;;;7372856;19;20426;-41
2022/04/21 00:34:18;;;;;;;7.00;4.57;;;9.70;53.60;;;;;;7373448;19;20372;-43
2022/04/21 00:36:47;;;;;;;6.05;4.30;;;9.80;53.70;;;;;;7375709;19;20412;-42
2022/04/21 00:39:17;;;;;;;5.15;4.55;;;10.00;52.20;;;;;;7366920;19;20138;-42
2022/04/21 00:41:46;;;;;;;4.55;4.15;;;9.90;53.20;;;;;;7377406;19;20135;-42
2022/04/21 00:44:16;;;;;;;10.43;5.43;;;9.80;53.40;;;;;;7372255;19;20234;-42
2022/04/21 00:46:48;;;;;;;6.17;5.23;;;9.80;54.10;;;;;;7367635;19;20376;-41
2022/04/21 00:49:21;;;;;;;5.57;4.75;;;9.50;54.50;;;;;;7370782;19;20367;-41
2022/04/21 00:51:51;;;;;;;6.70;5.03;;;9.40;54.60;;;;;;7375681;19;20127;-41
2022/04/21 00:54:26;;;;;;;6.05;5.25;;;9.40;55.10;;;;;;7371554;19;20747;-42
2022/04/21 00:56:58;;;;;;;9.82;5.90;;;9.60;54.90;;;;;;7373755;19;20135;-41
2022/04/21 00:59:28;;;;;;;6.32;5.50;;;9.70;54.70;;;;;;7363186;19;20131;-42
2022/04/21 01:04:46;;;;;;;7.55;5.55;;;9.50;55.70;;;;;;7374414;19;20729;-41
2022/04/21 01:07:20;;;;;;;10.25;5.20;;;9.40;55.90;;;;;;7367831;19;20220;-40
2022/04/21 01:09:50;;;;;;;5.78;5.28;;;9.30;56.40;;;;;;7373791;19;20174;-40
2022/04/21 01:12:19;;;;;;;6.30;5.63;;;9.50;56.00;;;;;;7376232;19;20139;-42
2022/04/21 01:14:49;;;;;;;5.82;5.22;;;9.50;56.00;;;;;;7372272;19;20138;-42
2022/04/21 01:17:33;;;;;;;9.60;5.68;;;9.60;56.10;;;;;;7366615;19;20135;-43
2022/04/21 01:20:06;;;;;;;8.25;5.43;;;9.60;55.80;;;;;;7358561;19;20652;-43
2022/04/21 01:22:38;;;;;;;8.35;6.30;;;9.20;56.80;;;;;;7363839;19;20700;-43
2022/04/21 01:25:11;;;;;;;6.50;5.90;;;9.40;57.00;;;;;;7369901;19;20123;-43
2022/04/21 01:27:41;;;;;;;13.52;6.80;;;9.00;57.60;;;;;;7373878;19;20123;-43
2022/04/21 01:30:15;;;;;;;6.15;5.55;;;8.80;58.40;;;;;;7369244;19;21127;-41
2022/04/21 01:32:51;;;;;;;6.55;5.75;;;9.00;58.20;;;;;;7365704;19;20134;-43
2022/04/21 01:35:20;;;;;;;8.25;6.28;;;8.90;58.00;;;;;;7370587;19;20185;-43
2022/04/21 01:43:19;;;;;;;9.60;6.30;;;9.00;57.90;;;;;;7370174;19;20140;-43
2022/04/21 01:45:48;;;;;;;6.90;5.70;;;9.10;57.80;;;;;;7367002;19;20131;-42
2022/04/21 01:48:18;;;;;;;8.32;5.93;;;9.20;57.70;;;;;;7368872;19;20131;-43
2022/04/21 01:50:47;;;;;;;7.53;6.63;;;9.10;57.80;;;;;;7375109;19;20216;-43
2022/04/21 01:53:19;;;;;;;11.27;6.78;;;8.90;58.30;;;;;;7374020;19;20392;-45
2022/04/21 01:55:49;;;;;;;7.50;6.38;;;9.00;58.10;;;;;;7370064;19;20945;-43
2022/04/21 01:58:21;;;;;;;9.38;6.00;;;8.90;58.50;;;;;;7370505;19;20130;-43
2022/04/21 02:00:50;;;;;;;9.70;7.57;;;8.90;58.60;;;;;;7363827;19;20187;-43
2022/04/21 02:03:21;;;;;;;14.38;7.35;;;8.80;58.80;;;;;;7372137;19;20143;-43
2022/04/21 02:05:55;;;;;;;7.75;6.28;;;8.80;59.00;;;;;;7367581;19;20131;-43
2022/04/21 02:08:29;;;;;;;6.57;5.95;;;8.60;59.40;;;;;;7364381;19;20670;-43
2022/04/21 02:10:59;;;;;;;7.28;6.18;;;8.70;59.50;;;;;;7370590;19;20786;-43
2022/04/21 02:13:31;;;;;;;7.80;7.00;;;8.50;59.80;;;;;;7377416;19;20178;-43
2022/04/21 02:16:00;;;;;;;9.38;7.13;;;8.50;60.00;;;;;;7373149;19;20479;-43
2022/04/21 02:18:29;;;;;;;7.68;6.88;;;8.30;61.10;;;;;;7376342;19;20155;-43
2022/04/21 02:20:59;;;;;;;8.48;6.88;;;8.50;60.90;;;;;;7375999;19;20151;-43
2022/04/21 02:23:33;;;;;;;7.65;6.85;;;8.60;60.30;;;;;;7376454;19;20619;-43
2022/04/21 02:26:03;;;;;;;10.60;7.05;;;8.70;60.00;;;;;;7375628;19;20138;-43
2022/04/21 02:28:34;;;;;;;7.90;7.07;;;8.60;60.10;;;;;;7381004;19;20131;-43
2022/04/21 02:31:06;;;;;;;7.68;6.72;;;8.40;60.90;;;;;;7370931;19;20138;-43
2022/04/21 02:33:36;;;;;;;10.65;6.47;;;8.50;61.20;;;;;;7372762;19;20119;-43
2022/04/21 02:36:10;;;;;;;7.88;5.95;;;8.60;61.80;;;;;;7381374;19;20518;-43
2022/04/21 02:38:44;;;;;;;7.40;6.65;;;8.80;60.00;;;;;;7376062;19;20131;-43
2022/04/21 02:41:16;;;;;;;8.77;6.57;;;8.80;59.70;;;;;;7378490;19;20150;-43
2022/04/21 02:43:45;;;;;;;7.57;6.57;;;8.60;61.00;;;;;;7371491;19;20151;-43
2022/04/21 02:46:16;;;;;;;8.55;7.65;;;8.20;62.40;;;;;;7374344;19;20255;-43
2022/04/21 02:48:47;;;;;;;9.40;7.90;;;8.30;62.40;;;;;;7372273;19;20165;-43
2022/04/21 02:51:21;;;;;;;8.20;6.97;;;8.30;62.60;;;;;;7380640;19;20212;-43
2022/04/21 02:59:32;;;;;;;9.32;8.02;;;8.20;63.50;;;;;;7368488;19;20870;-43
2022/04/21 03:02:01;;;;;;;10.32;8.25;;;8.50;62.50;;;;;;7373435;19;20135;-43
2022/04/21 03:04:31;;;;;;;8.57;7.78;;;8.10;63.40;;;;;;7371342;19;20135;-45
2022/04/21 03:07:00;;;;;;;10.00;8.25;;;7.90;65.50;;;;;;7376060;19;20154;-43
2022/04/21 03:09:34;;;;;;;10.10;8.32;;;8.00;65.50;;;;;;7374496;19;20584;-43
2022/04/21 03:12:07;;;;;;;10.60;9.50;;;8.10;64.70;;;;;;7377267;19;20664;-43
2022/04/21 03:14:39;;;;;;;9.85;8.70;;;8.10;64.50;;;;;;7374853;19;20135;-43
2022/04/21 03:17:12;;;;;;;11.07;8.88;;;7.90;65.70;;;;;;7372665;19;20211;-44
2022/04/21 03:19:42;;;;;;;10.18;8.80;;;8.00;65.50;;;;;;7373021;19;20560;-43
2022/04/21 03:25:06;;;;;;;16.13;10.30;;;8.10;65.80;;;;;;7379048;19;20128;-43
2022/04/21 03:27:36;;;;;;;12.07;10.50;;;8.20;64.70;;;;;;7377543;19;20135;-44
2022/04/21 03:30:08;;;;;;;11.02;9.93;;;8.10;65.30;;;;;;7371710;19;20147;-43
2022/04/21 03:32:38;;;;;;;12.05;10.40;;;8.00;65.80;;;;;;7370538;19;20136;-44
2022/04/21 03:35:08;;;;;;;11.43;9.18;;;8.10;65.40;;;;;;7371349;19;20175;-43
2022/04/21 03:37:42;;;;;;;11.30;10.13;;;8.10;65.40;;;;;;7375583;19;20138;-43
2022/04/21 03:40:15;;;;;;;11.55;9.75;;;7.90;65.90;;;;;;7373059;19;20756;-43
2022/04/21 03:42:47;;;;;;;11.40;9.70;;;7.80;67.00;;;;;;7375394;19;20180;-44
2022/04/21 03:45:16;;;;;;;11.52;10.05;;;8.00;66.40;;;;;;7369223;19;20232;-45
2022/04/21 03:47:50;;;;;;;11.88;10.60;;;8.10;65.60;;;;;;7375060;19;20147;-44
2022/04/21 03:50:20;;;;;;;10.73;8.40;;;7.90;66.40;;;;;;7365010;19;20621;-44
2022/04/21 03:52:52;;;;;;;11.73;10.52;;;8.00;66.60;;;;;;7367177;19;20602;-43
2022/04/21 03:55:25;;;;;;;12.27;10.43;;;8.10;65.90;;;;;;7373861;19;20139;-43
2022/04/21 03:57:57;;;;;;;11.25;10.07;;;8.10;65.80;;;;;;7374102;19;20163;-43
2022/04/21 04:00:26;;;;;;;11.48;10.32;;;7.90;67.00;;;;;;7369354;19;21777;-44
2022/04/21 04:02:56;;;;;;;13.75;10.55;;;7.80;67.50;;;;;;7369200;19;20169;-43
2022/04/21 04:05:25;;;;;;;11.82;10.55;;;7.90;67.30;;;;;;7368763;19;20135;-43
2022/04/21 04:10:54;;;;;;;14.48;11.02;;;7.70;67.80;;;;;;7371394;19;20143;-43
2022/04/21 04:13:24;;;;;;;11.82;10.05;;;7.80;68.10;;;;;;7377216;19;20664;-43
2022/04/21 04:16:00;;;;;;;13.25;10.32;;;8.00;67.60;;;;;;7359851;19;20131;-43
2022/04/21 04:18:32;;;;;;;11.80;10.32;;;7.90;66.90;;;;;;7364852;19;20158;-44
2022/04/21 04:21:01;;;;;;;12.40;11.10;;;7.70;67.80;;;;;;7361037;19;20170;-42
2022/04/21 04:23:33;;;;;;;12.63;10.30;;;7.60;68.90;;;;;;7371361;19;20134;-43
2022/04/21 04:26:07;;;;;;;11.85;10.68;;;7.70;68.50;;;;;;7365953;19;20598;-43
2022/04/21 04:28:39;;;;;;;12.23;10.77;;;7.90;67.60;;;;;;7374357;19;20154;-43
2022/04/21 04:31:09;;;;;;;14.00;12.32;;;8.00;67.00;;;;;;7360203;19;21198;-44
2022/04/21 04:33:38;;;;;;;14.93;11.20;;;8.00;66.90;;;;;;7376076;19;20131;-43
2022/04/21 04:36:11;;;;;;;15.27;12.63;;;7.90;67.00;;;;;;7372233;19;20770;-43
2022/04/21 04:38:40;;;;;;;13.32;11.93;;;7.80;68.40;;;;;;7375670;19;20153;-43
2022/04/21 04:43:55;;;;;;;15.05;11.60;;;7.90;67.90;;;;;;7360221;19;20601;-43
2022/04/21 04:49:07;;;;;;;15.38;11.68;;;7.60;69.00;;;;;;7374478;19;20169;-43
2022/04/21 04:51:42;;;;;;;12.27;11.13;;;7.60;69.10;;;;;;7363596;19;20139;-43
2022/04/21 04:54:13;;;;;;;15.30;12.45;;;7.70;68.90;;;;;;7378463;19;20131;-43
2022/04/21 04:56:47;;;;;;;13.57;11.80;;;7.70;68.80;;;;;;7373841;19;20127;-44
2022/04/21 04:59:17;;;;;;;13.93;12.10;;;7.90;68.70;;;;;;7373281;19;20143;-43
2022/04/21 05:01:48;;;;;;;14.65;13.20;;;7.80;68.30;;;;;;7369829;19;20148;-44
2022/04/21 05:04:19;;;;;;;15.25;11.70;;;7.80;68.80;;;;;;7368349;19;20868;-43
2022/04/21 05:06:51;;;;;;;14.43;12.93;;;7.90;68.70;;;;;;7361013;19;20607;-44
2022/04/21 05:09:22;;;;;;;14.10;11.80;;;7.80;68.80;;;;;;7363052;19;20128;-43
2022/04/21 05:11:58;;;;;;;12.90;11.50;;;7.90;69.10;;;;;;7360602;19;20132;-43
2022/04/21 05:14:29;;;;;;;12.25;10.30;;;7.80;69.10;;;;;;7372738;19;20606;-43
2022/04/21 05:16:58;;;;;;;15.00;11.50;;;7.90;69.10;;;;;;7369093;19;20123;-43
2022/04/21 05:19:28;;;;;;;14.10;12.05;;;7.80;69.00;;;;;;7370532;19;20186;-43
2022/04/21 05:22:03;;;;;;;12.80;10.80;;;7.80;69.60;;;;;;7370777;19;20131;-43
2022/04/21 05:24:36;;;;;;;18.25;10.75;;;7.80;69.50;;;;;;7376932;19;20138;-43
2022/04/21 05:27:09;;;;;;;14.80;12.65;;;7.80;70.80;;;;;;7372720;19;20639;-43
2022/04/21 05:32:27;;;;;;;13.07;11.57;;;7.70;71.50;;;;;;7367532;19;20123;-43
2022/04/21 05:35:00;;;;;;;14.32;11.38;;;8.00;70.00;;;;;;7375250;19;20131;-43
2022/04/21 05:37:32;;;;;;;16.33;12.27;;;7.90;69.80;;;;;;7370689;19;20484;-43
2022/04/21 05:40:05;;;;;;;16.10;12.68;;;7.90;70.00;;;;;;7376223;19;20132;-44
2022/04/21 05:42:42;;;;;;;25.60;19.38;;;8.00;70.10;;;;;;7366832;19;20638;-43
2022/04/21 05:45:16;;;;;;;20.00;17.35;;;7.90;70.10;;;;;;7364006;19;20512;-43
2022/04/21 05:47:48;;;;;;;16.42;13.18;;;8.00;70.50;;;;;;7367143;19;20167;-43
2022/04/21 05:50:19;;;;;;;15.85;11.38;;;8.20;69.30;;;;;;7367662;19;20135;-43
2022/04/21 05:52:57;;;;;;;15.70;12.30;;;8.10;69.70;;;;;;7364876;19;20397;-43
2022/04/21 05:55:29;;;;;;;15.13;12.35;;;8.20;69.70;;;;;;7373778;19;20173;-43
2022/04/21 05:58:01;;;;;;;13.25;11.30;;;8.20;69.80;;;;;;7364798;19;20539;-43
2022/04/21 06:00:33;;;;;;;14.40;11.90;;;8.30;69.40;;;;;;7361691;19;20219;-43
2022/04/21 06:03:03;;;;;;;18.85;12.48;;;8.40;69.50;;;;;;7360192;19;20135;-43
2022/04/21 06:05:32;;;;;;;16.50;13.25;;;8.40;69.30;;;;;;7365549;19;20124;-43
2022/04/21 06:08:02;;;;;;;13.68;12.27;;;8.60;69.10;;;;;;7370269;19;20622;-43
2022/04/21 06:10:31;;;;;;;12.90;11.52;;;8.80;67.70;;;;;;7366180;19;20128;-43
2022/04/21 06:13:03;;;;;;;16.00;11.45;;;9.10;66.70;;;;;;7358296;19;20136;-41
2022/04/21 06:15:33;;;;;;;15.20;11.63;;;9.50;65.10;;;;;;7366490;19;20206;-42
2022/04/21 06:18:08;;;;;;;13.60;11.10;;;9.70;64.10;;;;;;7362261;19;20147;-43
2022/04/21 06:20:38;;;;;;;17.80;12.10;;;10.10;61.80;;;;;;7368407;19;20392;-43
2022/04/21 06:23:10;;;;;;;13.40;11.00;;;10.30;60.00;;;;;;7365784;19;20388;-44
2022/04/21 06:25:39;;;;;;;13.90;11.57;;;10.40;59.80;;;;;;7359655;19;20404;-43
2022/04/21 06:28:15;;;;;;;14.70;12.17;;;10.60;59.10;;;;;;7369835;19;20721;-43
2022/04/21 06:30:48;;;;;;;15.30;11.40;;;10.80;58.60;;;;;;7352686;19;20405;-43
2022/04/21 06:33:17;;;;;;;15.40;12.70;;;11.10;57.70;;;;;;7369282;19;20367;-44
2022/04/21 06:35:49;;;;;;;13.90;10.70;;;11.30;56.70;;;;;;7374427;19;20366;-44
2022/04/21 06:38:18;;;;;;;21.20;12.83;;;11.40;56.70;;;;;;7371549;19;20359;-43
2022/04/21 06:40:48;;;;;;;16.70;12.20;;;11.50;55.70;;;;;;7374162;19;20476;-43
2022/04/21 06:48:45;;;;;;;15.10;12.33;;;12.20;54.20;;;;;;7375612;19;21092;-43
2022/04/21 06:51:18;;;;;;;12.80;11.23;;;12.40;53.50;;;;;;7372492;19;20711;-45
2022/04/21 06:53:49;;;;;;;13.67;11.00;;;12.60;53.10;;;;;;7363876;19;20415;-44
2022/04/21 06:56:19;;;;;;;14.47;11.43;;;12.80;52.40;;;;;;7369454;19;20372;-43
2022/04/21 06:58:55;;;;;;;15.50;12.23;;;13.00;52.10;;;;;;7381148;19;20754;-43
2022/04/21 07:01:24;;;;;;;12.43;10.60;;;13.20;51.40;;;;;;7378250;19;20932;-43
2022/04/21 07:03:56;;;;;;;12.17;10.50;;;13.30;50.90;;;;;;7367114;19;20436;-43
2022/04/21 07:06:26;;;;;;;10.87;9.77;;;13.50;50.30;;;;;;7375468;19;20391;-44
2022/04/21 07:08:55;;;;;;;11.37;9.83;;;13.70;49.40;;;;;;7372821;19;20417;-44
2022/04/21 07:11:27;;;;;;;18.27;11.47;;;13.50;49.50;;;;;;7369642;19;20664;-43
2022/04/21 07:13:59;;;;;;;12.90;11.60;;;13.70;49.20;;;;;;7380904;19;20368;-44
2022/04/21 07:16:31;;;;;;;11.70;10.43;;;13.90;48.90;;;;;;7363979;19;21247;-44
2022/04/21 07:19:01;;;;;;;12.73;11.40;;;14.00;48.50;;;;;;7359025;19;21062;-44
2022/04/21 07:21:32;;;;;;;12.97;11.57;;;14.20;48.00;;;;;;7355031;19;20966;-45
2022/04/21 07:24:02;;;;;;;11.47;10.27;;;14.20;47.80;;;;;;7368270;19;20465;-43
2022/04/21 07:26:34;;;;;;;13.13;10.90;;;14.20;47.60;;;;;;7370366;19;20373;-45
2022/04/21 07:29:08;;;;;;;13.23;10.33;;;14.40;47.20;;;;;;7367625;19;20734;-44
2022/04/21 07:31:38;;;;;;;11.50;10.30;;;14.50;46.80;;;;;;7360530;19;20473;-44
2022/04/21 07:34:13;;;;;;;12.33;10.90;;;14.60;46.40;;;;;;7365616;19;20928;-43
2022/04/21 07:36:42;;;;;;;15.10;11.47;;;14.80;46.00;;;;;;7364482;19;20376;-45
2022/04/21 07:39:18;;;;;;;11.80;10.60;;;14.80;45.60;;;;;;7355115;19;20408;-44
2022/04/21 07:41:50;;;;;;;11.57;10.40;;;14.90;45.90;;;;;;7368192;19;20435;-36
2022/04/21 07:44:23;;;;;;;11.10;9.60;;;15.10;45.60;;;;;;7351826;19;20423;-37
2022/04/21 07:46:52;;;;;;;12.70;10.27;;;15.20;45.60;;;;;;7375389;19;20414;-37
2022/04/21 07:54:51;;;;;;;12.50;10.20;;;15.90;43.50;;;;;;7378427;19;20735;-37
2022/04/21 07:57:21;;;;;;;11.43;9.40;;;15.60;43.50;;;;;;7378054;19;20451;-37
2022/04/21 07:59:55;;;;;;;12.00;10.40;;;15.60;43.90;;;;;;7381084;19;20407;-37
2022/04/21 08:02:25;;;;;;;11.23;9.07;;;15.90;43.40;;;;;;7378645;19;20504;-37
2022/04/21 08:04:54;;;;;;;10.70;9.70;;;15.90;43.00;;;;;;7379352;19;20376;-37
2022/04/21 08:07:24;;;;;;;11.67;9.00;;;15.90;42.90;;;;;;7376804;19;20405;-37
2022/04/21 08:09:58;;;;;;;9.70;8.70;;;16.00;43.20;;;;;;7378489;19;20428;-37
2022/04/21 08:12:29;;;;;;;8.10;7.30;;;16.30;42.80;;;;;;7378411;19;20770;-37
2022/04/21 08:15:03;;;;;;;9.70;8.80;;;16.50;42.60;;;;;;7380816;19;20849;-35
2022/04/21 08:17:32;;;;;;;11.70;8.60;;;16.90;41.60;;;;;;7378665;19;20465;-37
2022/04/21 08:20:02;;;;;;;10.13;7.60;;;17.00;41.40;;;;;;7379156;19;20388;-35
2022/04/21 08:22:31;;;;;;;10.90;9.53;;;17.10;41.40;;;;;;7375899;19;20388;-36
2022/04/21 08:33:14;;;;;;;9.17;7.93;;;18.00;39.50;;;;;;7379504;19;21021;-36
2022/04/21 08:35:44;;;;;;;9.70;8.70;;;18.30;38.80;;;;;;7377403;19;20823;-36
2022/04/21 08:38:16;;;;;;;9.93;8.23;;;18.50;38.00;;;;;;7378824;19;20733;-36
2022/04/21 08:40:52;;;;;;;9.30;8.27;;;18.50;37.50;;;;;;7379709;19;20728;-43
2022/04/21 08:43:25;;;;;;;10.10;8.80;;;18.60;38.10;;;;;;7376501;19;20391;-44
2022/04/21 08:46:00;;;;;;;8.70;7.80;;;18.60;37.50;;;;;;7380045;19;20805;-44
2022/04/21 08:48:34;;;;;;;8.37;7.60;;;19.00;37.60;;;;;;7377166;19;20387;-43
2022/04/21 08:51:04;;;;;;;9.00;8.10;;;19.30;37.30;;;;;;7376356;19;20768;-46
2022/04/21 08:53:34;;;;;;;9.47;8.47;;;19.90;36.40;;;;;;7376809;19;20384;-45
2022/04/21 08:56:04;;;;;;;9.20;8.50;;;20.20;35.20;;;;;;7378354;19;20435;-45
2022/04/21 08:58:36;;;;;;;9.40;8.50;;;20.30;34.90;;;;;;7378826;19;20547;-45
2022/04/21 09:01:08;;;;;;;8.80;7.93;;;20.70;34.90;;;;;;7374822;19;20916;-46
2022/04/21 09:03:38;;;;;;;9.57;8.57;;;20.70;34.10;;;;;;7376412;19;20376;-45
2022/04/21 09:06:07;;;;;;;9.87;7.67;;;21.10;34.10;;;;;;7376688;19;20376;-46
2022/04/21 09:08:39;;;;;;;10.37;7.60;;;21.50;33.40;;;;;;7376971;19;20378;-46
2022/04/21 09:11:10;;;;;;;8.67;7.70;;;22.00;32.50;;;;;;7377608;19;20916;-39
2022/04/21 09:13:41;;;;;;;10.07;7.73;;;22.20;31.50;;;;;;7377211;19;20764;-36
2022/04/21 09:16:20;;;;;;;9.70;8.83;;;22.60;30.80;;;;;;7377759;19;20718;-39
2022/04/21 09:19:03;;;;;;;9.17;8.37;;;23.00;30.50;;;;;;7374630;19;20523;-36
2022/04/21 09:21:38;;;;;;;8.30;7.60;;;23.40;29.40;;;;;;7376451;19;20938;-39
2022/04/21 09:24:23;;;;;;;8.53;7.73;;;23.40;29.70;;;;;;7376135;19;20376;-36
2022/04/21 09:26:59;;;;;;;10.60;9.70;;;23.70;29.80;;;;;;7378528;19;20805;-36
2022/04/21 09:29:32;;;;;;;9.07;8.27;;;23.70;29.50;;;;;;7377419;19;20378;-36
2022/04/21 09:32:06;;;;;;;9.63;8.83;;;24.30;28.80;;;;;;7378678;19;20376;-36
2022/04/21 09:34:37;;;;;;;24.73;9.07;;;24.80;28.60;;;;;;7376510;19;20412;-39
2022/04/21 09:37:07;;;;;;;10.40;9.50;;;25.50;28.20;;;;;;7376587;19;20739;-36
2022/04/21 09:39:41;;;;;;;8.27;7.57;;;25.80;27.70;;;;;;7375084;19;20964;-36
2022/04/21 09:42:13;;;;;;;8.50;7.70;;;26.40;26.70;;;;;;7377635;19;20390;-37
2022/04/21 09:47:32;;;;;;;8.70;8.00;;;25.50;27.70;;;;;;7377166;19;20384;-36
2022/04/21 09:50:14;;;;;;;7.23;6.63;;;25.40;27.40;;;;;;7376238;19;20736;-45
2022/04/21 09:52:49;;;;;;;8.80;8.10;;;25.30;27.70;;;;;;7376508;19;20470;-45
2022/04/21 09:55:27;;;;;;;8.70;7.60;;;26.10;26.50;;;;;;7377332;19;20383;-46
2022/04/21 09:58:09;;;;;;;7.13;6.50;;;26.20;26.70;;;;;;7377339;19;20387;-45
2022/04/21 10:00:41;;;;;;;7.60;6.87;;;26.90;25.80;;;;;;7376964;19;20376;-43
2022/04/21 10:03:14;;;;;;;7.10;6.50;;;27.30;25.40;;;;;;7372428;19;20407;-45
2022/04/21 10:05:44;;;;;;;7.17;6.47;;;27.10;25.30;;;;;;7373673;19;20512;-44
2022/04/21 10:08:14;;;;;;;6.83;6.10;;;27.50;25.30;;;;;;7373922;19;21451;-44
2022/04/21 10:10:45;;;;;;;5.70;5.30;;;28.00;24.30;;;;;;7375270;19;20751;-44
2022/04/21 10:13:17;;;;;;;7.70;7.10;;;28.50;23.90;;;;;;7373963;19;20396;-44
2022/04/21 10:15:47;;;;;;;6.60;6.10;;;28.50;23.50;;;;;;7376383;19;20423;-44
2022/04/21 10:18:20;;;;;;;5.80;5.30;;;28.70;23.50;;;;;;7373107;19;20428;-44
2022/04/21 10:20:56;;;;;;;6.13;5.53;;;29.30;23.60;;;;;;7372544;19;20787;-44
2022/04/21 10:23:28;;;;;;;6.13;5.53;;;30.10;22.60;;;;;;7375268;19;20379;-44
2022/04/21 10:26:04;;;;;;;5.33;4.83;;;29.90;22.70;;;;;;7377657;19;20395;-45
2022/04/21 10:28:41;;;;;;;6.30;5.70;;;30.00;22.50;;;;;;7374860;19;20730;-44
2022/04/21 10:31:46;;;;;;;6.80;6.30;;;29.90;22.40;;;;;;7376553;19;20791;-44
2022/04/21 10:34:36;;;;;;;6.30;5.80;;;29.00;22.80;;;;;;7380039;19;20422;-44
2022/04/21 10:37:12;;;;;;;6.30;5.80;;;28.10;24.30;;;;;;7383529;19;20904;-45
2022/04/21 10:39:42;;;;;;;6.53;6.03;;;27.70;24.60;;;;;;7381533;19;20884;-44
2022/04/21 10:42:18;;;;;;;6.33;5.83;;;26.90;25.00;;;;;;7381081;19;20397;-44
2022/04/21 10:44:49;;;;;;;6.37;5.77;;;25.60;26.40;;;;;;7382161;19;20393;-45
2022/04/21 10:47:35;;;;;;;6.93;6.33;;;25.20;26.70;;;;;;7383604;19;20380;-45
2022/04/21 10:50:23;;;;;;;5.73;5.23;;;24.90;27.00;;;;;;7382199;19;20372;-44
2022/04/21 10:58:55;;;;;;;6.03;5.43;;;27.00;25.80;;;;;;7380720;19;20387;-45
2022/04/21 11:01:34;;;;;;;4.50;4.20;;;28.00;24.90;;;;;;7382749;19;20374;-44
2022/04/21 11:04:14;;;;;;;6.57;5.30;;;29.40;23.80;;;;;;7383966;19;20372;-43
2022/04/21 11:06:51;;;;;;;6.50;5.90;;;29.10;23.60;;;;;;7384600;19;20504;-44
2022/04/21 11:09:36;;;;;;;5.80;5.40;;;28.00;24.20;;;;;;7381402;19;20654;-45
2022/04/21 11:12:09;;;;;;;7.60;5.70;;;27.00;25.40;;;;;;7380410;19;20389;-45
2022/04/21 11:14:44;;;;;;;7.03;5.23;;;25.60;26.50;;;;;;7379610;19;20379;-45
2022/04/21 11:17:13;;;;;;;6.83;4.63;;;25.30;27.60;;;;;;7379936;19;20953;-44
2022/04/21 11:19:54;;;;;;;4.90;4.47;;;25.20;27.60;;;;;;7376042;19;20381;-43
2022/04/21 11:22:42;;;;;;;4.97;4.10;;;25.20;27.90;;;;;;7381711;19;20376;-45
2022/04/21 11:25:13;;;;;;;5.30;3.80;;;26.90;26.60;;;;;;7380165;19;20383;-43
2022/04/21 11:27:45;;;;;;;3.83;3.53;;;28.30;25.10;;;;;;7368701;19;20443;-45
2022/04/21 11:30:16;;;;;;;4.13;3.70;;;29.50;23.40;;;;;;7364479;19;20394;-44
2022/04/21 11:32:53;;;;;;;5.60;3.90;;;28.90;23.80;;;;;;7365863;19;20493;-44
2022/04/21 11:35:24;;;;;;;3.87;3.57;;;28.30;24.50;;;;;;7364039;19;20368;-44
2022/04/21 11:38:02;;;;;;;3.40;3.10;;;28.10;24.70;;;;;;7365317;19;20387;-44
2022/04/21 11:40:39;;;;;;;3.77;3.33;;;28.00;24.40;;;;;;7371546;19;20380;-44
2022/04/21 11:43:18;;;;;;;3.77;3.40;;;27.10;25.20;;;;;;7369890;19;20372;-45
2022/04/21 11:46:00;;;;;;;12.10;4.27;;;26.50;26.10;;;;;;7374463;19;20776;-44
2022/04/21 11:48:31;;;;;;;3.30;3.00;;;26.30;27.20;;;;;;7381031;19;20375;-44
2022/04/21 11:51:01;;;;;;;3.23;2.93;;;27.30;26.10;;;;;;7375304;19;20391;-44
2022/04/21 11:53:36;;;;;;;3.00;2.67;;;29.10;24.00;;;;;;7373538;19;20787;-45
2022/04/21 11:56:07;;;;;;;3.37;3.07;;;29.10;24.20;;;;;;7376686;19;20375;-44
2022/04/21 11:58:38;;;;;;;2.37;2.10;;;30.50;23.50;;;;;;7377513;19;20490;-44
2022/04/21 12:06:43;;;;;;;3.10;2.27;;;30.80;21.80;;;;;;7377011;19;20747;-44
2022/04/21 12:09:20;;;;;;;2.00;1.90;;;28.60;23.70;;;;;;7379129;19;21084;-45
2022/04/21 12:11:51;;;;;;;1.97;1.87;;;26.70;25.50;;;;;;7380026;19;20439;-43
2022/04/21 12:14:21;;;;;;;2.33;2.13;;;26.00;25.90;;;;;;7366068;19;20408;-43
2022/04/21 12:16:56;;;;;;;4.97;2.30;;;25.30;26.90;;;;;;7374721;19;20408;-44
2022/04/21 12:19:33;;;;;;;2.73;1.70;;;25.80;27.20;;;;;;7372077;19;20455;-43
2022/04/21 12:22:09;;;;;;;1.97;1.77;;;27.20;24.60;;;;;;7373865;19;20387;-44
2022/04/21 12:24:43;;;;;;;2.07;1.50;;;27.30;24.70;;;;;;7372770;19;20411;-44
2022/04/21 12:27:16;;;;;;;2.20;1.97;;;27.50;24.50;;;;;;7364192;19;20412;-43
2022/04/21 12:29:52;;;;;;;1.20;1.10;;;27.00;24.90;;;;;;7374614;19;20381;-44
2022/04/21 12:32:25;;;;;;;1.77;1.40;;;26.30;24.70;;;;;;7372173;19;21541;-44
2022/04/21 12:34:58;;;;;;;4.07;1.50;;;25.70;25.50;;;;;;7370304;19;20388;-45
2022/04/21 12:37:28;;;;;;;1.10;1.00;;;24.80;26.40;;;;;;7374187;19;20772;-45
2022/04/21 12:40:02;;;;;;;1.47;1.17;;;24.40;26.60;;;;;;7379908;19;20400;-45
2022/04/21 12:42:35;;;;;;;2.23;1.37;;;24.40;27.10;;;;;;7370512;19;20743;-45
2022/04/21 12:45:08;;;;;;;1.60;1.30;;;24.80;26.80;;;;;;7370142;19;20368;-45
2022/04/21 12:47:45;;;;;;;1.20;1.10;;;25.60;25.70;;;;;;7378778;19;20964;-44
2022/04/21 12:50:21;;;;;;;1.70;1.33;;;27.10;24.70;;;;;;7379340;19;20413;-45
2022/04/21 12:52:52;;;;;;;4.27;1.83;;;27.60;24.10;;;;;;7377311;19;20400;-44
2022/04/21 12:55:31;;;;;;;4.13;1.70;;;27.10;24.50;;;;;;7378757;19;20391;-44
2022/04/21 12:58:09;;;;;;;1.43;0.90;;;26.40;25.20;;;;;;7378754;19;20451;-45
2022/04/21 13:00:41;;;;;;;1.83;1.20;;;25.60;25.90;;;;;;7375381;19;20368;-44
2022/04/21 13:03:14;;;;;;;2.03;1.50;;;26.20;25.50;;;;;;7376938;19;20384;-44
2022/04/21 13:05:50;;;;;;;1.60;1.50;;;27.70;24.40;;;;;;7375523;19;20454;-43
2022/04/21 13:08:20;;;;;;;2.33;1.53;;;29.10;23.10;;;;;;7376894;19;20380;-43
2022/04/21 13:10:52;;;;;;;4.80;1.47;;;28.60;23.30;;;;;;7371475;19;20380;-44
2022/04/21 13:13:22;;;;;;;1.60;1.50;;;27.40;24.30;;;;;;7378412;19;20376;-45
2022/04/21 13:15:52;;;;;;;2.30;1.60;;;26.50;25.00;;;;;;7377766;19;20422;-44
2022/04/21 13:18:24;;;;;;;1.73;1.20;;;25.50;25.70;;;;;;7347040;19;20463;-46
2022/04/21 13:23:40;;;;;;;1.70;1.43;;;24.40;27.10;;;;;;7377321;19;20692;-44
2022/04/21 13:26:15;;;;;;;1.33;1.23;;;24.50;27.10;;;;;;7372771;19;20408;-44
2022/04/21 13:28:47;;;;;;;2.37;1.90;;;24.60;27.00;;;;;;7376812;19;20400;-44
2022/04/21 13:34:12;;;;;;;3.13;1.97;;;24.50;28.20;;;;;;7373492;19;20396;-37
2022/04/21 13:36:42;;;;;;;2.23;2.03;;;24.10;28.30;;;;;;7375876;19;20727;-37
2022/04/21 13:39:11;;;;;;;2.73;2.30;;;23.90;29.00;;;;;;7376882;19;20376;-37
2022/04/21 13:41:48;;;;;;;2.00;1.80;;;23.70;28.70;;;;;;7376158;19;21206;-37
2022/04/21 13:44:20;;;;;;;2.70;2.30;;;23.40;28.90;;;;;;7373334;19;20387;-37
2022/04/21 13:46:52;;;;;;;4.30;2.53;;;23.10;29.50;;;;;;7378135;19;20400;-37
2022/04/21 13:49:22;;;;;;;2.77;2.57;;;23.00;29.80;;;;;;7376706;19;20395;-37
2022/04/21 13:51:54;;;;;;;3.50;1.90;;;22.90;29.70;;;;;;7375943;19;20415;-37
2022/04/21 13:54:23;;;;;;;2.70;2.20;;;22.80;30.00;;;;;;7375514;19;20376;-37
2022/04/21 13:56:56;;;;;;;2.10;1.60;;;22.40;29.70;;;;;;7376249;19;20387;-37
2022/04/21 13:59:27;;;;;;;2.30;2.10;;;22.30;30.00;;;;;;7375515;19;20467;-37
2022/04/21 14:01:57;;;;;;;2.30;2.10;;;22.30;30.00;;;;;;7377143;19;20376;-45
2022/04/21 14:04:28;;;;;;;2.17;1.97;;;22.30;29.90;;;;;;7372745;19;20384;-43
2022/04/21 14:06:58;;;;;;;2.23;2.00;;;22.40;30.00;;;;;;7382954;19;20392;-44
2022/04/21 14:09:27;;;;;;;2.23;2.03;;;22.40;29.80;;;;;;7382859;19;20914;-45
2022/04/21 14:12:00;;;;;;;2.77;2.00;;;22.30;30.70;;;;;;7383929;19;21384;-45
2022/04/21 14:14:29;;;;;;;2.70;2.50;;;22.20;30.10;;;;;;7384671;19;20408;-44
2022/04/21 14:17:05;;;;;;;3.00;2.60;;;22.20;29.80;;;;;;7383144;19;20924;-45